createdAt,value
2023-05-10T00:00:08.630Z,9.57
2023-05-10T00:01:34.654Z,9.54
2023-05-10T00:02:36.190Z,9.53
2023-05-10T00:03:38.032Z,9.52
2023-05-10T00:04:39.876Z,9.51
2023-05-10T00:05:41.631Z,9.51
2023-05-10T00:06:43.389Z,9.51
2023-05-10T00:07:47.717Z,9.49
2023-05-10T00:08:49.200Z,9.48
2023-05-10T00:09:50.656Z,9.47
2023-05-10T00:10:53.195Z,9.46
2023-05-10T00:11:54.783Z,9.45
2023-05-10T00:12:56.269Z,9.44
2023-05-10T00:13:57.769Z,9.43
2023-05-10T00:14:59.381Z,9.41
2023-05-10T00:16:00.848Z,9.40
2023-05-10T00:17:02.351Z,9.39
2023-05-10T00:18:03.929Z,9.39
2023-05-10T00:19:05.444Z,9.38
2023-05-10T00:20:07.560Z,9.36
2023-05-10T00:21:09.162Z,9.35
2023-05-10T00:22:10.780Z,9.33
2023-05-10T00:23:12.880Z,9.33
2023-05-10T00:24:14.290Z,9.32
2023-05-10T00:25:15.787Z,9.31
2023-05-10T00:26:17.372Z,9.30
2023-05-10T00:27:20.047Z,9.30
2023-05-10T00:28:21.560Z,9.29
2023-05-10T00:29:22.969Z,9.27
2023-05-10T00:30:24.660Z,9.27
2023-05-10T00:31:26.744Z,9.25
2023-05-10T00:32:28.421Z,9.24
2023-05-10T00:33:30.986Z,9.22
2023-05-10T00:34:32.585Z,9.21
2023-05-10T00:35:34.294Z,9.18
2023-05-10T00:36:35.823Z,9.17
2023-05-10T00:37:37.279Z,9.15
2023-05-10T00:38:38.671Z,9.14
2023-05-10T00:39:40.131Z,9.13
2023-05-10T00:40:41.917Z,9.12
2023-05-10T00:41:47.791Z,9.10
2023-05-10T00:42:49.155Z,9.09
2023-05-10T00:43:50.607Z,9.08
2023-05-10T00:44:52.113Z,9.07
2023-05-10T00:45:54.399Z,9.06
2023-05-10T00:46:56.198Z,9.05
2023-05-10T00:47:57.638Z,9.05
2023-05-10T00:48:59.664Z,9.03
2023-05-10T00:50:02.369Z,9.02
2023-05-10T00:51:04.079Z,9.00
2023-05-10T00:52:05.708Z,8.99
2023-05-10T00:53:08.324Z,8.98
2023-05-10T00:54:12.933Z,8.97
2023-05-10T00:55:14.404Z,8.96
2023-05-10T00:56:16.739Z,8.94
2023-05-10T00:57:18.342Z,8.94
2023-05-10T00:58:19.992Z,8.92
2023-05-10T00:59:21.793Z,8.90
2023-05-10T01:00:23.283Z,8.89
2023-05-10T01:01:25.734Z,8.88
2023-05-10T01:02:27.950Z,8.87
2023-05-10T01:03:29.972Z,8.86
2023-05-10T01:04:31.725Z,8.85
2023-05-10T01:05:33.254Z,8.84
2023-05-10T01:06:34.909Z,8.82
2023-05-10T01:07:36.481Z,8.80
2023-05-10T01:08:39.377Z,8.78
2023-05-10T01:09:40.886Z,8.77
2023-05-10T01:10:43.503Z,8.75
2023-05-10T01:11:45.365Z,8.73
2023-05-10T01:12:48.002Z,8.72
2023-05-10T01:13:57.512Z,8.70
2023-05-10T01:15:01.291Z,8.70
2023-05-10T01:16:03.712Z,8.69
2023-05-10T01:17:07.079Z,8.67
2023-05-10T01:18:09.458Z,8.67
2023-05-10T01:19:20.601Z,8.66
2023-05-10T01:20:22.366Z,8.65
2023-05-10T01:21:33.512Z,8.63
2023-05-10T01:22:59.100Z,8.62
2023-05-10T01:24:19.903Z,8.60
2023-05-10T01:25:39.807Z,8.57
2023-05-10T01:27:18.858Z,8.54
2023-05-10T01:29:03.054Z,8.51
2023-05-10T01:32:16.950Z,8.44
2023-05-10T01:33:57.104Z,8.42
2023-05-10T01:35:29.408Z,8.38
2023-05-10T01:36:55.932Z,8.37
2023-05-10T01:38:09.462Z,8.35
2023-05-10T01:39:15.652Z,8.34
2023-05-10T01:40:23.617Z,8.33
2023-05-10T01:41:46.268Z,8.31
2023-05-10T01:42:55.866Z,8.30
2023-05-10T01:44:10.447Z,8.29
2023-05-10T01:45:20.381Z,8.27
2023-05-10T01:46:29.251Z,8.25
2023-05-10T01:47:39.169Z,8.23
2023-05-10T01:48:48.760Z,8.21
2023-05-10T01:49:54.849Z,8.19
2023-05-10T01:50:58.409Z,8.18
2023-05-10T01:52:09.013Z,8.17
2023-05-10T01:53:13.609Z,8.15
2023-05-10T01:54:19.821Z,8.13
2023-05-10T01:55:25.151Z,8.12
2023-05-10T01:56:28.531Z,8.11
2023-05-10T01:57:33.939Z,8.10
2023-05-10T01:58:38.435Z,8.09
2023-05-10T01:59:43.414Z,8.09
2023-05-10T02:00:46.633Z,8.07
2023-05-10T02:01:50.321Z,8.05
2023-05-10T02:02:53.255Z,8.04
2023-05-10T02:03:57.248Z,8.02
2023-05-10T02:05:00.280Z,8.01
2023-05-10T02:06:03.552Z,7.99
2023-05-10T02:07:07.169Z,7.98
2023-05-10T02:08:10.245Z,7.97
2023-05-10T02:09:13.369Z,7.96
2023-05-10T02:10:16.461Z,7.96
2023-05-10T02:11:21.856Z,7.95
2023-05-10T02:12:24.438Z,7.95
2023-05-10T02:13:28.847Z,7.94
2023-05-10T02:14:34.681Z,7.93
2023-05-10T02:15:38.998Z,7.92
2023-05-10T02:16:41.680Z,7.92
2023-05-10T02:17:44.530Z,7.92
2023-05-10T02:18:47.361Z,7.91
2023-05-10T02:19:49.957Z,7.91
2023-05-10T02:20:54.014Z,7.91
2023-05-10T02:21:57.547Z,7.90
2023-05-10T02:23:00.268Z,7.90
2023-05-10T02:24:03.590Z,7.90
2023-05-10T02:25:07.203Z,7.88
2023-05-10T02:26:09.906Z,7.87
2023-05-10T02:27:12.757Z,7.85
2023-05-10T02:28:15.849Z,7.84
2023-05-10T02:29:19.009Z,7.83
2023-05-10T02:30:22.017Z,7.84
2023-05-10T02:31:25.893Z,7.82
2023-05-10T02:32:29.507Z,7.82
2023-05-10T02:33:33.905Z,7.81
2023-05-10T02:34:36.548Z,7.80
2023-05-10T02:35:39.448Z,7.79
2023-05-10T02:36:42.494Z,7.78
2023-05-10T02:37:45.977Z,7.77
2023-05-10T02:38:49.296Z,7.76
2023-05-10T02:39:54.363Z,7.76
2023-05-10T02:40:57.002Z,7.75
2023-05-10T02:41:59.298Z,7.73
2023-05-10T02:43:02.858Z,7.73
2023-05-10T02:44:08.243Z,7.72
2023-05-10T02:45:15.067Z,7.71
2023-05-10T02:46:17.809Z,7.70
2023-05-10T02:47:19.944Z,7.70
2023-05-10T02:48:21.566Z,7.70
2023-05-10T02:49:23.566Z,7.70
2023-05-10T02:50:28.406Z,7.70
2023-05-10T02:51:34.037Z,7.69
2023-05-10T02:52:40.686Z,7.69
2023-05-10T02:53:44.795Z,7.68
2023-05-10T02:54:51.019Z,7.67
2023-05-10T02:55:57.436Z,7.66
2023-05-10T02:57:03.212Z,7.66
2023-05-10T02:58:04.728Z,7.65
2023-05-10T02:59:06.276Z,7.65
2023-05-10T03:00:08.838Z,7.64
2023-05-10T03:01:10.408Z,7.64
2023-05-10T03:02:15.105Z,7.64
2023-05-10T03:03:16.812Z,7.64
2023-05-10T03:04:18.535Z,7.63
2023-05-10T03:05:20.797Z,7.63
2023-05-10T03:06:22.468Z,7.61
2023-05-10T03:07:24.212Z,7.61
2023-05-10T03:08:26.367Z,7.61
2023-05-10T03:09:29.193Z,7.59
2023-05-10T03:10:32.919Z,7.58
2023-05-10T03:11:49.842Z,7.57
2023-05-10T03:13:17.100Z,7.55
2023-05-10T03:14:40.823Z,7.54
2023-05-10T03:16:09.784Z,7.53
2023-05-10T03:17:17.617Z,7.51
2023-05-10T03:18:23.893Z,7.49
2023-05-10T03:19:33.717Z,7.49
2023-05-10T03:20:38.039Z,7.49
2023-05-10T03:21:48.435Z,7.49
2023-05-10T03:23:25.531Z,7.50
2023-05-10T03:24:28.822Z,7.50
2023-05-10T03:25:32.839Z,7.50
2023-05-10T03:26:35.718Z,7.51
2023-05-10T03:27:44.522Z,7.52
2023-05-10T03:28:48.727Z,7.53
2023-05-10T03:29:51.546Z,7.55
2023-05-10T03:30:54.815Z,7.56
2023-05-10T03:31:57.903Z,7.57
2023-05-10T03:33:05.851Z,7.58
2023-05-10T03:34:07.414Z,7.58
2023-05-10T03:35:10.254Z,7.59
2023-05-10T03:36:12.065Z,7.61
2023-05-10T03:37:13.887Z,7.63
2023-05-10T03:38:15.693Z,7.64
2023-05-10T03:39:17.154Z,7.65
2023-05-10T03:40:19.509Z,7.65
2023-05-10T03:41:21.742Z,7.66
2023-05-10T03:42:23.607Z,7.67
2023-05-10T03:43:25.030Z,7.68
2023-05-10T03:44:27.295Z,7.69
2023-05-10T03:45:29.543Z,7.71
2023-05-10T03:46:31.116Z,7.73
2023-05-10T03:47:32.929Z,7.76
2023-05-10T03:48:35.219Z,7.77
2023-05-10T03:49:36.649Z,7.79
2023-05-10T03:50:38.437Z,7.81
2023-05-10T03:51:39.869Z,7.82
2023-05-10T03:52:41.480Z,7.84
2023-05-10T03:53:43.186Z,7.86
2023-05-10T03:54:44.610Z,7.88
2023-05-10T03:55:46.858Z,7.90
2023-05-10T03:56:48.298Z,7.92
2023-05-10T03:57:50.695Z,7.94
2023-05-10T03:58:52.259Z,7.96
2023-05-10T03:59:53.679Z,7.98
2023-05-10T04:00:55.944Z,8.00
2023-05-10T04:01:57.491Z,8.04
2023-05-10T04:02:59.204Z,8.06
2023-05-10T04:04:00.989Z,8.09
2023-05-10T04:05:03.045Z,8.12
2023-05-10T04:06:05.673Z,8.15
2023-05-10T04:07:08.292Z,8.19
2023-05-10T04:08:09.929Z,8.22
2023-05-10T04:09:11.384Z,8.26
2023-05-10T04:10:14.667Z,8.29
2023-05-10T04:11:16.334Z,8.32
2023-05-10T04:12:17.767Z,8.36
2023-05-10T04:13:19.408Z,8.39
2023-05-10T04:14:21.039Z,8.43
2023-05-10T04:15:22.536Z,8.46
2023-05-10T04:16:23.990Z,8.50
2023-05-10T04:17:25.536Z,8.54
2023-05-10T04:18:27.030Z,8.59
2023-05-10T04:19:31.621Z,8.63
2023-05-10T04:20:33.632Z,8.67
2023-05-10T04:21:35.020Z,8.70
2023-05-10T04:22:36.567Z,8.73
2023-05-10T04:23:38.259Z,8.77
2023-05-10T04:24:40.021Z,8.79
2023-05-10T04:25:41.483Z,8.84
2023-05-10T04:26:42.903Z,8.87
2023-05-10T04:27:44.306Z,8.92
2023-05-10T04:28:45.920Z,8.95
2023-05-10T04:29:47.440Z,8.99
2023-05-10T04:30:48.934Z,9.03
2023-05-10T04:31:51.210Z,9.07
2023-05-10T04:32:52.800Z,9.12
2023-05-10T04:33:54.559Z,9.15
2023-05-10T04:34:56.101Z,9.19
2023-05-10T04:35:57.629Z,9.23
2023-05-10T04:36:59.059Z,9.27
2023-05-10T04:38:00.443Z,9.31
2023-05-10T04:39:03.367Z,9.33
2023-05-10T04:40:06.540Z,9.37
2023-05-10T04:41:09.751Z,9.42
2023-05-10T04:42:11.684Z,9.46
2023-05-10T04:43:13.432Z,9.49
2023-05-10T04:44:14.963Z,9.53
2023-05-10T04:45:16.925Z,9.57
2023-05-10T04:46:19.130Z,9.62
2023-05-10T04:47:20.622Z,9.67
2023-05-10T04:48:22.034Z,9.71
2023-05-10T04:49:23.920Z,9.75
2023-05-10T04:50:25.444Z,9.79
2023-05-10T04:51:26.808Z,9.82
2023-05-10T04:52:28.169Z,9.85
2023-05-10T04:53:29.967Z,9.89
2023-05-10T04:54:33.693Z,9.92
2023-05-10T04:55:36.028Z,9.97
2023-05-10T04:56:37.681Z,10.02
2023-05-10T04:57:39.210Z,10.06
2023-05-10T04:58:40.711Z,10.09
2023-05-10T04:59:42.976Z,10.14
2023-05-10T05:00:44.535Z,10.19
2023-05-10T05:01:46.078Z,10.24
2023-05-10T05:02:47.653Z,10.26
2023-05-10T05:03:49.300Z,10.30
2023-05-10T05:04:51.350Z,10.33
2023-05-10T05:05:52.897Z,10.36
2023-05-10T05:06:54.281Z,10.39
2023-05-10T05:07:55.765Z,10.44
2023-05-10T05:08:57.213Z,10.47
2023-05-10T05:09:58.907Z,10.52
2023-05-10T05:11:00.528Z,10.55
2023-05-10T05:12:01.925Z,10.59
2023-05-10T05:13:03.468Z,10.63
2023-05-10T05:14:05.020Z,10.67
2023-05-10T05:15:09.770Z,10.72
2023-05-10T05:16:11.626Z,10.76
2023-05-10T05:17:13.139Z,10.80
2023-05-10T05:18:14.546Z,10.82
2023-05-10T05:19:16.089Z,10.86
2023-05-10T05:20:19.424Z,10.88
2023-05-10T05:21:21.860Z,10.92
2023-05-10T05:22:28.391Z,10.96
2023-05-10T05:23:30.452Z,10.98
2023-05-10T05:24:36.774Z,10.99
2023-05-10T05:25:38.314Z,11.01
2023-05-10T05:26:39.890Z,11.03
2023-05-10T05:27:41.535Z,11.04
2023-05-10T05:28:43.144Z,11.07
2023-05-10T05:29:44.513Z,11.09
2023-05-10T05:30:46.629Z,11.12
2023-05-10T05:31:48.063Z,11.14
2023-05-10T05:32:49.507Z,11.18
2023-05-10T05:33:51.041Z,11.22
2023-05-10T05:34:52.588Z,11.25
2023-05-10T05:35:54.184Z,11.28
2023-05-10T05:36:55.677Z,11.31
2023-05-10T05:37:57.065Z,11.35
2023-05-10T05:38:58.718Z,11.41
2023-05-10T05:40:02.057Z,11.47
2023-05-10T05:41:03.881Z,11.51
2023-05-10T05:42:05.428Z,11.56
2023-05-10T05:43:06.854Z,11.59
2023-05-10T05:44:08.561Z,11.65
2023-05-10T05:45:13.248Z,11.70
2023-05-10T05:46:15.033Z,11.75
2023-05-10T05:47:16.548Z,11.81
2023-05-10T05:48:18.087Z,11.84
2023-05-10T05:49:19.490Z,11.88
2023-05-10T05:50:20.900Z,11.91
2023-05-10T05:51:22.595Z,11.95
2023-05-10T05:52:24.013Z,11.98
2023-05-10T05:53:25.686Z,12.00
2023-05-10T05:54:28.192Z,12.03
2023-05-10T05:55:31.733Z,12.07
2023-05-10T05:56:33.601Z,12.11
2023-05-10T05:57:34.995Z,12.13
2023-05-10T05:58:36.388Z,12.15
2023-05-10T05:59:42.201Z,12.15
2023-05-10T06:00:43.612Z,12.16
2023-05-10T06:01:45.934Z,12.17
2023-05-10T06:02:48.271Z,12.16
2023-05-10T06:03:51.881Z,12.15
2023-05-10T06:04:54.843Z,12.17
2023-05-10T06:05:56.353Z,12.21
2023-05-10T06:06:57.895Z,12.25
2023-05-10T06:08:00.919Z,12.29
2023-05-10T06:09:02.879Z,12.34
2023-05-10T06:10:04.954Z,12.38
2023-05-10T06:11:06.358Z,12.40
2023-05-10T06:12:07.890Z,12.42
2023-05-10T06:13:10.176Z,12.43
2023-05-10T06:14:11.913Z,12.47
2023-05-10T06:15:13.567Z,12.50
2023-05-10T06:16:15.329Z,12.54
2023-05-10T06:17:16.994Z,12.56
2023-05-10T06:18:18.446Z,12.60
2023-05-10T06:19:19.835Z,12.62
2023-05-10T06:20:21.291Z,12.63
2023-05-10T06:21:22.790Z,12.66
2023-05-10T06:22:24.160Z,12.69
2023-05-10T06:23:25.803Z,12.71
2023-05-10T06:24:27.822Z,12.73
2023-05-10T06:25:29.531Z,12.75
2023-05-10T06:26:30.992Z,12.78
2023-05-10T06:27:32.626Z,12.84
2023-05-10T06:28:34.171Z,12.89
2023-05-10T06:29:35.547Z,12.92
2023-05-10T06:30:37.322Z,12.94
2023-05-10T06:31:38.722Z,12.96
2023-05-10T06:32:40.298Z,12.98
2023-05-10T06:33:41.746Z,12.99
2023-05-10T06:34:44.019Z,13.02
2023-05-10T06:35:45.554Z,13.06
2023-05-10T06:36:47.011Z,13.11
2023-05-10T06:37:48.912Z,13.17
2023-05-10T06:38:51.507Z,13.22
2023-05-10T06:39:52.904Z,13.29
2023-05-10T06:40:54.393Z,13.35
2023-05-10T06:41:55.814Z,13.38
2023-05-10T06:42:57.455Z,13.44
2023-05-10T06:43:58.973Z,13.48
2023-05-10T06:45:00.563Z,13.51
2023-05-10T06:46:02.032Z,13.55
2023-05-10T06:47:03.512Z,13.58
2023-05-10T06:48:05.155Z,13.63
2023-05-10T06:49:06.555Z,13.68
2023-05-10T06:50:09.115Z,13.74
2023-05-10T06:51:10.816Z,13.80
2023-05-10T06:52:12.584Z,13.87
2023-05-10T06:53:14.130Z,13.92
2023-05-10T06:54:15.552Z,13.95
2023-05-10T06:55:17.211Z,13.98
2023-05-10T06:56:21.670Z,14.00
2023-05-10T06:57:31.085Z,14.02
2023-05-10T06:58:33.147Z,14.04
2023-05-10T06:59:34.974Z,14.05
2023-05-10T07:00:40.777Z,14.05
2023-05-10T07:01:42.834Z,14.06
2023-05-10T07:02:44.803Z,14.10
2023-05-10T07:03:46.599Z,14.15
2023-05-10T07:04:48.563Z,14.18
2023-05-10T07:05:50.045Z,14.20
2023-05-10T07:06:51.422Z,14.21
2023-05-10T07:07:52.784Z,14.26
2023-05-10T07:08:54.259Z,14.31
2023-05-10T07:09:56.916Z,14.35
2023-05-10T07:11:03.774Z,14.36
2023-05-10T07:12:05.810Z,14.38
2023-05-10T07:13:08.387Z,14.41
2023-05-10T07:14:10.183Z,14.45
2023-05-10T07:15:11.766Z,14.49
2023-05-10T07:16:13.650Z,14.54
2023-05-10T07:17:15.387Z,14.59
2023-05-10T07:18:16.902Z,14.64
2023-05-10T07:19:18.943Z,14.69
2023-05-10T07:20:21.131Z,14.74
2023-05-10T07:21:24.567Z,14.77
2023-05-10T07:22:26.406Z,14.80
2023-05-10T07:23:28.036Z,14.82
2023-05-10T07:24:30.399Z,14.85
2023-05-10T07:25:32.072Z,14.87
2023-05-10T07:26:33.445Z,14.90
2023-05-10T07:27:35.259Z,14.93
2023-05-10T07:28:37.946Z,14.97
2023-05-10T07:29:39.570Z,15.00
2023-05-10T07:30:41.796Z,15.02
2023-05-10T07:31:43.283Z,15.06
2023-05-10T07:32:45.487Z,15.09
2023-05-10T07:33:46.986Z,15.13
2023-05-10T07:34:48.732Z,15.17
2023-05-10T07:35:50.663Z,15.20
2023-05-10T07:36:52.884Z,15.24
2023-05-10T07:37:54.275Z,15.27
2023-05-10T07:38:57.750Z,15.30
2023-05-10T07:39:59.442Z,15.33
2023-05-10T07:41:01.699Z,15.35
2023-05-10T07:42:03.358Z,15.37
2023-05-10T07:43:04.762Z,15.39
2023-05-10T07:44:06.567Z,15.41
2023-05-10T07:45:08.872Z,15.43
2023-05-10T07:46:11.393Z,15.45
2023-05-10T07:47:12.875Z,15.46
2023-05-10T07:48:14.324Z,15.48
2023-05-10T07:49:16.841Z,15.51
2023-05-10T07:50:18.645Z,15.57
2023-05-10T07:51:20.119Z,15.61
2023-05-10T07:52:22.824Z,15.65
2023-05-10T07:53:26.364Z,15.70
2023-05-10T07:54:28.167Z,15.74
2023-05-10T07:55:30.036Z,15.79
2023-05-10T07:56:32.905Z,15.83
2023-05-10T07:57:34.912Z,15.88
2023-05-10T07:58:36.419Z,15.93
2023-05-10T07:59:37.841Z,15.97
2023-05-10T08:00:39.934Z,16.00
2023-05-10T08:01:42.739Z,16.03
2023-05-10T08:02:44.401Z,16.06
2023-05-10T08:03:46.227Z,16.10
2023-05-10T08:04:47.713Z,16.12
2023-05-10T08:05:49.308Z,16.14
2023-05-10T08:06:50.817Z,16.16
2023-05-10T08:07:52.245Z,16.20
2023-05-10T08:08:54.505Z,16.25
2023-05-10T08:09:56.035Z,16.30
2023-05-10T08:10:57.710Z,16.34
2023-05-10T08:12:00.379Z,16.37
2023-05-10T08:13:01.838Z,16.41
2023-05-10T08:14:03.394Z,16.45
2023-05-10T08:15:05.478Z,16.48
2023-05-10T08:16:07.688Z,16.50
2023-05-10T08:17:09.296Z,16.53
2023-05-10T08:18:10.714Z,16.56
2023-05-10T08:19:12.167Z,16.60
2023-05-10T08:20:16.991Z,16.65
2023-05-10T08:21:18.778Z,16.69
2023-05-10T08:22:20.532Z,16.70
2023-05-10T08:23:21.950Z,16.73
2023-05-10T08:24:23.485Z,16.76
2023-05-10T08:25:24.970Z,16.78
2023-05-10T08:26:27.018Z,16.77
2023-05-10T08:27:28.448Z,16.77
2023-05-10T08:28:29.920Z,16.79
2023-05-10T08:29:38.616Z,16.81
2023-05-10T08:30:48.020Z,16.84
2023-05-10T08:31:49.764Z,16.85
2023-05-10T08:32:51.471Z,16.87
2023-05-10T08:33:53.092Z,16.89
2023-05-10T08:34:54.589Z,16.88
2023-05-10T08:35:56.126Z,16.88
2023-05-10T08:36:57.700Z,16.89
2023-05-10T08:37:59.208Z,16.93
2023-05-10T08:39:00.732Z,16.98
2023-05-10T08:40:03.353Z,17.05
2023-05-10T08:41:06.475Z,17.08
2023-05-10T08:42:09.502Z,17.09
2023-05-10T08:43:13.114Z,17.07
2023-05-10T08:44:16.167Z,17.05
2023-05-10T08:45:20.360Z,17.05
2023-05-10T08:46:23.247Z,17.07
2023-05-10T08:47:25.852Z,17.11
2023-05-10T08:48:30.826Z,17.12
2023-05-10T08:49:33.359Z,17.15
2023-05-10T08:50:37.167Z,17.19
2023-05-10T08:51:44.352Z,17.21
2023-05-10T08:52:49.474Z,17.24
2023-05-10T08:53:51.434Z,17.26
2023-05-10T08:54:53.419Z,17.29
2023-05-10T08:55:55.937Z,17.34
2023-05-10T08:56:57.519Z,17.37
2023-05-10T08:57:59.910Z,17.39
2023-05-10T08:59:02.082Z,17.41
2023-05-10T09:00:04.417Z,17.45
2023-05-10T09:01:06.230Z,17.47
2023-05-10T09:02:10.118Z,17.46
2023-05-10T09:03:13.307Z,17.45
2023-05-10T09:04:14.782Z,17.45
2023-05-10T09:05:18.005Z,17.47
2023-05-10T09:06:20.123Z,17.49
2023-05-10T09:07:21.736Z,17.52
2023-05-10T09:08:27.872Z,17.57
2023-05-10T09:09:29.562Z,17.65
2023-05-10T09:10:31.974Z,17.67
2023-05-10T09:11:33.858Z,17.70
2023-05-10T09:12:36.240Z,17.74
2023-05-10T09:13:38.263Z,17.79
2023-05-10T09:14:40.404Z,17.85
2023-05-10T09:15:42.125Z,17.88
2023-05-10T09:16:43.759Z,17.90
2023-05-10T09:17:46.093Z,17.91
2023-05-10T09:18:47.682Z,17.93
2023-05-10T09:19:49.211Z,17.97
2023-05-10T09:20:50.706Z,18.02
2023-05-10T09:21:52.238Z,18.02
2023-05-10T09:22:53.681Z,18.01
2023-05-10T09:23:55.959Z,17.97
2023-05-10T09:25:12.297Z,17.94
2023-05-10T09:26:13.684Z,17.94
2023-05-10T09:27:15.132Z,17.96
2023-05-10T09:28:16.512Z,17.99
2023-05-10T09:29:18.201Z,18.01
2023-05-10T09:30:31.144Z,18.04
2023-05-10T09:31:54.880Z,18.07
2023-05-10T09:32:58.480Z,18.05
2023-05-10T09:33:59.951Z,18.04
2023-05-10T09:35:10.590Z,18.01
2023-05-10T09:36:12.904Z,17.99
2023-05-10T09:37:14.627Z,17.99
2023-05-10T09:38:16.724Z,18.01
2023-05-10T09:39:18.342Z,18.03
2023-05-10T09:40:25.018Z,18.04
2023-05-10T09:41:28.401Z,18.06
2023-05-10T09:42:30.021Z,18.06
2023-05-10T09:43:38.524Z,18.05
2023-05-10T09:44:41.246Z,18.04
2023-05-10T09:45:42.897Z,18.04
2023-05-10T09:46:49.495Z,18.06
2023-05-10T09:47:51.079Z,18.09
2023-05-10T09:48:52.532Z,18.15
2023-05-10T09:49:58.071Z,18.19
2023-05-10T09:50:59.823Z,18.23
2023-05-10T09:52:01.869Z,18.28
2023-05-10T09:53:04.005Z,18.31
2023-05-10T09:54:16.887Z,18.30
2023-05-10T09:55:23.412Z,18.29
2023-05-10T09:56:36.034Z,18.23
2023-05-10T09:57:37.988Z,18.19
2023-05-10T09:58:39.450Z,18.17
2023-05-10T09:59:43.310Z,18.17
2023-05-10T10:00:48.002Z,18.18
2023-05-10T10:01:56.869Z,18.22
2023-05-10T10:02:59.959Z,18.28
2023-05-10T10:04:06.738Z,18.33
2023-05-10T10:05:09.148Z,18.38
2023-05-10T10:06:18.902Z,18.43
2023-05-10T10:07:28.954Z,18.51
2023-05-10T10:08:30.418Z,18.56
2023-05-10T10:09:33.316Z,18.62
2023-05-10T10:10:34.959Z,18.67
2023-05-10T10:11:38.365Z,18.70
2023-05-10T10:12:41.797Z,18.74
2023-05-10T10:13:43.519Z,18.80
2023-05-10T10:14:46.294Z,18.86
2023-05-10T10:15:51.277Z,18.90
2023-05-10T10:17:06.503Z,18.92
2023-05-10T10:18:13.835Z,18.92
2023-05-10T10:19:15.694Z,18.96
2023-05-10T10:20:19.581Z,18.99
2023-05-10T10:21:22.634Z,19.04
2023-05-10T10:22:24.076Z,19.06
2023-05-10T10:23:25.962Z,19.07
2023-05-10T10:24:27.375Z,19.06
2023-05-10T10:25:29.204Z,19.07
2023-05-10T10:26:30.934Z,19.11
2023-05-10T10:27:57.010Z,19.18
2023-05-10T10:29:35.022Z,19.29
2023-05-10T10:30:47.412Z,19.35
2023-05-10T10:31:56.512Z,19.33
2023-05-10T10:33:32.922Z,19.29
2023-05-10T10:34:34.829Z,19.33
2023-05-10T10:35:37.128Z,19.33
2023-05-10T10:36:46.519Z,19.36
2023-05-10T10:37:51.433Z,19.38
2023-05-10T10:39:01.496Z,19.37
2023-05-10T10:40:22.789Z,19.34
2023-05-10T10:41:33.115Z,19.27
2023-05-10T10:42:50.113Z,19.27
2023-05-10T10:44:27.060Z,19.29
2023-05-10T10:45:29.026Z,19.29
2023-05-10T10:46:30.805Z,19.30
2023-05-10T10:47:33.525Z,19.30
2023-05-10T10:48:36.094Z,19.31
2023-05-10T10:50:00.883Z,19.33
2023-05-10T10:51:03.336Z,19.35
2023-05-10T10:52:24.263Z,19.38
2023-05-10T10:53:29.814Z,19.47
2023-05-10T10:54:32.939Z,19.55
2023-05-10T10:55:34.454Z,19.60
2023-05-10T10:56:37.176Z,19.59
2023-05-10T10:57:48.058Z,19.60
2023-05-10T10:58:53.920Z,19.62
2023-05-10T11:00:31.604Z,19.70
2023-05-10T11:01:35.566Z,19.80
2023-05-10T11:02:46.239Z,19.89
2023-05-10T11:03:59.575Z,19.97
2023-05-10T11:05:37.512Z,19.97
2023-05-10T11:06:40.527Z,19.99
2023-05-10T11:07:55.849Z,20.06
2023-05-10T11:08:57.786Z,20.13
2023-05-10T11:10:04.923Z,20.22
2023-05-10T11:11:07.432Z,20.30
2023-05-10T11:12:09.625Z,20.31
2023-05-10T11:13:11.171Z,20.34
2023-05-10T11:14:12.710Z,20.37
2023-05-10T11:15:14.584Z,20.41
2023-05-10T11:16:17.679Z,20.44
2023-05-10T11:17:29.466Z,20.52
2023-05-10T11:18:31.066Z,20.64
2023-05-10T11:19:32.557Z,20.69
2023-05-10T11:20:40.187Z,20.76
2023-05-10T11:22:13.751Z,20.88
2023-05-10T11:23:16.241Z,21.13
2023-05-10T11:24:28.330Z,21.31
2023-05-10T11:25:29.814Z,21.49
2023-05-10T11:26:34.073Z,21.66
2023-05-10T11:27:38.173Z,21.81
2023-05-10T11:28:48.462Z,21.90
2023-05-10T11:29:52.689Z,22.00
2023-05-10T11:30:54.915Z,22.07
2023-05-10T11:32:00.187Z,22.08
2023-05-10T11:33:01.805Z,22.11
2023-05-10T11:34:03.369Z,22.17
2023-05-10T11:35:08.822Z,22.23
2023-05-10T11:36:16.060Z,22.33
2023-05-10T11:37:18.611Z,22.45
2023-05-10T11:38:20.426Z,22.62
2023-05-10T11:39:26.080Z,22.78
2023-05-10T11:40:27.684Z,22.96
2023-05-10T11:41:31.068Z,23.12
2023-05-10T11:42:32.549Z,23.17
2023-05-10T11:43:34.126Z,23.17
2023-05-10T11:44:35.871Z,23.19
2023-05-10T11:45:37.937Z,23.22
2023-05-10T11:46:39.633Z,23.30
2023-05-10T11:47:43.722Z,23.41
2023-05-10T11:48:45.350Z,23.58
2023-05-10T11:49:48.156Z,23.63
2023-05-10T11:50:50.430Z,23.68
2023-05-10T11:51:51.858Z,23.79
2023-05-10T11:52:54.828Z,23.86
2023-05-10T11:53:57.353Z,23.88
2023-05-10T11:54:58.823Z,23.95
2023-05-10T11:56:08.183Z,24.07
2023-05-10T11:57:10.052Z,24.22
2023-05-10T11:58:11.781Z,24.37
2023-05-10T11:59:15.226Z,24.54
2023-05-10T12:00:17.055Z,24.74
2023-05-10T12:01:18.791Z,24.92
2023-05-10T12:02:20.628Z,25.08
2023-05-10T12:03:22.574Z,25.14
2023-05-10T12:04:25.218Z,25.12
2023-05-10T12:05:26.816Z,25.10
2023-05-10T12:06:31.263Z,25.13
2023-05-10T12:07:32.791Z,25.24
2023-05-10T12:08:34.468Z,25.35
2023-05-10T12:09:43.871Z,25.47
2023-05-10T12:10:46.020Z,25.53
2023-05-10T12:11:47.718Z,25.55
2023-05-10T12:12:52.882Z,25.63
2023-05-10T12:13:55.338Z,25.64
2023-05-10T12:14:56.804Z,25.75
2023-05-10T12:15:59.357Z,25.92
2023-05-10T12:17:00.956Z,26.09
2023-05-10T12:18:03.133Z,26.29
2023-05-10T12:19:05.616Z,26.40
2023-05-10T12:20:21.349Z,26.51
2023-05-10T12:21:22.999Z,26.76
2023-05-10T12:22:24.975Z,26.93
2023-05-10T12:23:26.763Z,27.05
2023-05-10T12:24:28.397Z,27.09
2023-05-10T12:25:33.057Z,27.11
2023-05-10T12:26:35.788Z,27.17
2023-05-10T12:27:37.381Z,27.24
2023-05-10T12:28:42.413Z,27.39
2023-05-10T12:29:46.698Z,27.64
2023-05-10T12:30:48.117Z,27.80
2023-05-10T12:31:54.854Z,27.82
2023-05-10T12:33:11.790Z,27.77
2023-05-10T12:34:23.340Z,27.75
2023-05-10T12:35:24.943Z,27.83
2023-05-10T12:36:26.357Z,27.99
2023-05-10T12:37:28.697Z,28.21
2023-05-10T12:38:33.703Z,28.39
2023-05-10T12:39:42.557Z,28.47
2023-05-10T12:40:44.157Z,28.59
2023-05-10T12:41:45.747Z,28.79
2023-05-10T12:42:47.326Z,29.08
2023-05-10T12:43:48.763Z,29.38
2023-05-10T12:44:50.249Z,29.65
2023-05-10T12:45:51.922Z,29.86
2023-05-10T12:46:53.644Z,30.04
2023-05-10T12:47:55.165Z,30.21
2023-05-10T12:49:08.005Z,30.39
2023-05-10T12:50:10.686Z,30.66
2023-05-10T12:51:13.747Z,30.85
2023-05-10T12:52:15.398Z,30.94
2023-05-10T12:53:17.168Z,30.95
2023-05-10T12:54:18.816Z,30.97
2023-05-10T12:55:20.331Z,30.99
2023-05-10T12:56:22.139Z,30.90
2023-05-10T12:57:23.891Z,30.78
2023-05-10T12:58:34.953Z,30.70
2023-05-10T12:59:38.359Z,30.71
2023-05-10T14:06:09.701Z,33.44
2023-05-10T14:07:11.834Z,33.44
2023-05-10T14:08:14.040Z,33.55
2023-05-10T14:09:16.402Z,33.80
2023-05-10T14:10:18.182Z,33.98
2023-05-10T14:11:21.588Z,34.02
2023-05-10T14:12:24.234Z,34.09
2023-05-10T14:13:25.891Z,34.16
2023-05-10T14:14:29.596Z,34.25
2023-05-10T14:15:31.496Z,34.45
2023-05-10T14:16:33.742Z,34.50
2023-05-10T14:17:35.731Z,34.43
2023-05-10T14:18:38.240Z,34.48
2023-05-10T14:19:40.083Z,34.62
2023-05-10T14:20:41.641Z,34.70
2023-05-10T14:21:43.719Z,34.88
2023-05-10T14:22:45.175Z,35.00
2023-05-10T14:23:46.579Z,35.00
2023-05-10T14:24:47.993Z,34.95
2023-05-10T14:25:49.946Z,34.88
2023-05-10T14:26:54.150Z,34.80
2023-05-10T14:27:55.751Z,34.71
2023-05-10T14:28:57.314Z,34.65
2023-05-10T14:29:58.860Z,34.54
2023-05-10T14:31:00.356Z,34.49
2023-05-10T14:32:03.674Z,34.42
2023-05-10T14:33:05.514Z,34.41
2023-05-10T14:34:07.087Z,34.43
2023-05-10T14:35:12.201Z,34.53
2023-05-10T14:36:14.756Z,34.54
2023-05-10T14:37:16.734Z,34.51
2023-05-10T14:38:18.239Z,34.48
2023-05-10T14:39:19.606Z,34.46
2023-05-10T14:40:21.440Z,34.52
2023-05-10T14:41:23.613Z,34.56
2023-05-10T14:42:25.420Z,34.63
2023-05-10T14:43:28.035Z,34.67
2023-05-10T14:44:29.958Z,34.64
2023-05-10T14:45:31.525Z,34.56
2023-05-10T14:46:34.729Z,34.47
2023-05-10T14:47:36.255Z,34.34
2023-05-10T14:48:38.172Z,34.09
2023-05-10T14:49:39.558Z,33.87
2023-05-10T14:50:41.535Z,33.95
2023-05-10T14:51:43.012Z,34.11
2023-05-10T14:53:37.286Z,34.09
2023-05-10T14:54:45.007Z,34.13
2023-05-10T14:55:47.267Z,34.06
2023-05-10T14:56:53.102Z,34.01
2023-05-10T14:57:54.950Z,33.99
2023-05-10T14:58:56.849Z,34.08
2023-05-10T15:00:00.448Z,34.24